Guerreiro Do Mar — CUGH4 — position and weather

sailwx.info

Track history (hours):
 
Tides and Currents Weather Stations Pressure Air Temp Water Temp Dewpoint Dewpoint Depression Visibility Wind Speed Wind Dir Waves Ship Positions

Guerreiro Do Mar

Last reported at 2017-Oct-27 20:22 UTC. Time now 2017-Nov-21 23:17 UTC.
Position N 39°21' W 009°22'.
Warning: this ship's position is 25 days out of date.

Type: Fishing. MMSI: 263314000.

Date/timePositionNaut miles runAvg speedWind from/ knotsBaromVisibWave heightAir tempDewpointWater temp
2017-Oct-27 20:22N 39°21' W 009°22'6 3.9
2017-Oct-27 18:49N 39°25' W 009°29'1 2.3
2017-Oct-27 18:30N 39°25' W 009°28'1 1.5
2017-Oct-27 17:57N 39°26' W 009°28'3 6.2
2017-Oct-27 17:30N 39°26' W 009°32'1 2.3
2017-Oct-27 17:00N 39°28' W 009°31'4 7.9
2017-Oct-27 16:30N 39°24' W 009°29'4 8.3
2017-Oct-27 16:00N 39°21' W 009°25'2 0.3
2017-Oct-27 08:46N 39°21' W 009°22'0 0.0
2017-Oct-27 08:27N 39°21' W 009°22'0 0.0
2017-Oct-27 07:56N 39°21' W 009°22'2 0.1
2017-Oct-26 14:12N 39°21' W 009°24'2 0.3
2017-Oct-26 09:04N 39°21' W 009°22'0 0.0
2017-Oct-26 08:49N 39°21' W 009°22'0 0.0
2017-Oct-26 08:30N 39°21' W 009°22'0 0.0
2017-Oct-26 07:53N 39°21' W 009°22'0 0.0
2017-Oct-26 07:26N 39°21' W 009°22'5 0.1
2017-Oct-24 07:26N 39°16' W 009°22'4 8.4
2017-Oct-24 06:58N 39°12' W 009°22'3 3.7
2017-Oct-24 06:18N 39°10' W 009°23'0 0.1
2017-Oct-24 05:45N 39°10' W 009°23'2 4.2
2017-Oct-24 05:20N 39°12' W 009°23'10 1.1
2017-Oct-23 20:33N 39°21' W 009°22'0 7.0
2017-Oct-23 20:30N 39°21' W 009°22'3 6.9
2017-Oct-23 20:00N 39°23' W 009°26'4 7.9
2017-Oct-23 19:30N 39°26' W 009°29'3 5.5
2017-Oct-23 19:00N 39°28' W 009°32'0 0.3
2017-Oct-23 18:30N 39°28' W 009°32'0 0.9
2017-Oct-23 18:00N 39°28' W 009°32'1 1.5
2017-Oct-23 17:30N 39°28' W 009°33'0 0.4
2017-Oct-23 16:59N 39°28' W 009°33'0 0.6
2017-Oct-23 16:28N 39°28' W 009°32'0 0.5
2017-Oct-23 16:00N 39°28' W 009°32'1 1.5
2017-Oct-23 15:29N 39°28' W 009°31'2 3.3
2017-Oct-23 15:00N 39°27' W 009°32'3 6.0
2017-Oct-23 14:30N 39°26' W 009°28'4 8.5
2017-Oct-23 14:00N 39°26' W 009°23'2 2.2
2017-Oct-23 13:02N 39°24' W 009°22'1 7.6
2017-Oct-23 12:56N 39°23' W 009°23'2 5.3
2017-Oct-23 12:30N 39°21' W 009°24'  
Track history (hours):
 
Tides and Currents Weather Stations Pressure Air Temp Water Temp Dewpoint Dewpoint Depression Visibility Wind Speed Wind Dir Waves Ship Positions

Guerreiro Do Mar

Last reported at 2017-Oct-27 20:22 UTC. Time now 2017-Nov-21 23:17 UTC.
Position N 39°21' W 009°22'.
Warning: this ship's position is 25 days out of date.

Type: Fishing. MMSI: 263314000.

Date/timePositionNaut miles runAvg speedWind from/ knotsBaromVisibWave heightAir tempDewpointWater temp
2017-Oct-27 20:22N 39°21' W 009°22'6 3.9
2017-Oct-27 18:49N 39°25' W 009°29'1 2.3
2017-Oct-27 18:30N 39°25' W 009°28'1 1.5
2017-Oct-27 17:57N 39°26' W 009°28'3 6.2
2017-Oct-27 17:30N 39°26' W 009°32'1 2.3
2017-Oct-27 17:00N 39°28' W 009°31'4 7.9
2017-Oct-27 16:30N 39°24' W 009°29'4 8.3
2017-Oct-27 16:00N 39°21' W 009°25'2 0.3
2017-Oct-27 08:46N 39°21' W 009°22'0 0.0
2017-Oct-27 08:27N 39°21' W 009°22'0 0.0
2017-Oct-27 07:56N 39°21' W 009°22'2 0.1
2017-Oct-26 14:12N 39°21' W 009°24'2 0.3
2017-Oct-26 09:04N 39°21' W 009°22'0 0.0
2017-Oct-26 08:49N 39°21' W 009°22'0 0.0
2017-Oct-26 08:30N 39°21' W 009°22'0 0.0
2017-Oct-26 07:53N 39°21' W 009°22'0 0.0
2017-Oct-26 07:26N 39°21' W 009°22'5 0.1
2017-Oct-24 07:26N 39°16' W 009°22'4 8.4
2017-Oct-24 06:58N 39°12' W 009°22'3 3.7
2017-Oct-24 06:18N 39°10' W 009°23'0 0.1
2017-Oct-24 05:45N 39°10' W 009°23'2 4.2
2017-Oct-24 05:20N 39°12' W 009°23'10 1.1
2017-Oct-23 20:33N 39°21' W 009°22'0 7.0
2017-Oct-23 20:30N 39°21' W 009°22'3 6.9
2017-Oct-23 20:00N 39°23' W 009°26'4 7.9
2017-Oct-23 19:30N 39°26' W 009°29'3 5.5
2017-Oct-23 19:00N 39°28' W 009°32'0 0.3
2017-Oct-23 18:30N 39°28' W 009°32'0 0.9
2017-Oct-23 18:00N 39°28' W 009°32'1 1.5
2017-Oct-23 17:30N 39°28' W 009°33'0 0.4
2017-Oct-23 16:59N 39°28' W 009°33'0 0.6
2017-Oct-23 16:28N 39°28' W 009°32'0 0.5
2017-Oct-23 16:00N 39°28' W 009°32'1 1.5
2017-Oct-23 15:29N 39°28' W 009°31'2 3.3
2017-Oct-23 15:00N 39°27' W 009°32'3 6.0
2017-Oct-23 14:30N 39°26' W 009°28'4 8.5
2017-Oct-23 14:00N 39°26' W 009°23'2 2.2
2017-Oct-23 13:02N 39°24' W 009°22'1 7.6
2017-Oct-23 12:56N 39°23' W 009°23'2 5.3
2017-Oct-23 12:30N 39°21' W 009°24'  

Dump ship's entire track history